Terminal Aerodrome Forecast
Issued by NWS Wilmington, OH

Current Version | Previous Version | Graphics & Text | Print | Product List | Glossary On
Versions: 1 2 3 4 5 6 7 8 9 10 11 12 13 14 15 16 17 18 19 20 21 22 23 24 25 26
000
FTUS41 KILN 050440 AAB
TAFCVG
TAF AMD
KCVG 050440Z 0505/0606 27012G18KT P6SM OVC012
      TEMPO 0505/0507 OVC006
     FM051400 20004KT P6SM BKN012
     FM051700 13004KT P6SM SCT015 BKN200
     FM052100 08008KT P6SM BKN250=

USA.gov is the U.S. government's official web portal to all federal, state and local government web resources and services.